Duck Lake, Canada
Current Conditions -  °F | °C
As of 2:00 PM on Monday 26 Jan 2015 (Local Time) from CYPA Reporting Station
Broken Clouds Broken Clouds  
Wind Chill:   Ceiling: 6600
Heat Index:   Visibility: 15mi
Dew Point:   Wind: 10mph
Humidity: 75%   Direction: 270°W
Pressure: 29.81"   Gusts: NA
Location:  52.8°N, 106.22°W
Report Text: CYPA 262000Z 27009KT 15SM BKN066 BKN090 BKN220 04/M00 A2981 RMK SC6AC1CI1 AC TR SLP113
Loading
Personal Weather Stations






























Interactive Weather Map New forecast layout! Learn more

10-Day Weather Forecast

Advertisements
Track Severe Weather on mobile